createdAt,value
2019-01-19T00:01:49.563Z,101838.83
2019-01-19T00:04:39.048Z,101835.30
2019-01-19T00:07:26.798Z,101834.38
2019-01-19T00:10:17.643Z,101829.47
2019-01-19T00:13:07.157Z,101838.72
2019-01-19T00:15:49.259Z,101834.16
2019-01-19T00:18:37.354Z,101834.81
2019-01-19T00:21:25.289Z,101838.88
2019-01-19T00:23:58.319Z,101840.28
2019-01-19T00:26:56.756Z,101837.17
2019-01-19T00:29:35.922Z,101840.76
2019-01-19T00:32:14.864Z,101842.53
2019-01-19T00:34:54.178Z,101842.58
2019-01-19T00:37:27.329Z,101833.70
2019-01-19T00:40:00.824Z,101838.16
2019-01-19T00:42:36.895Z,101836.43
2019-01-19T00:45:21.753Z,101842.26
2019-01-19T00:47:57.450Z,101837.78
2019-01-19T00:50:56.305Z,101840.45
2019-01-19T00:53:32.527Z,101846.38
2019-01-19T00:56:28.807Z,101843.44
2019-01-19T00:59:01.688Z,101843.95
2019-01-19T01:01:53.944Z,101844.02
2019-01-19T01:04:36.187Z,101842.49
2019-01-19T01:07:30.272Z,101845.22
2019-01-19T01:10:03.153Z,101844.79
2019-01-19T01:12:44.934Z,101842.64
2019-01-19T01:15:20.754Z,101841.40
2019-01-19T01:17:53.085Z,101838.34
2019-01-19T01:20:53.679Z,101840.72
2019-01-19T01:23:29.531Z,101841.72
2019-01-19T01:26:23.621Z,101845.38
2019-01-19T01:29:26.546Z,101839.13
2019-01-19T01:32:05.026Z,101836.38
2019-01-19T01:34:40.846Z,101837.88
2019-01-19T01:37:20.044Z,101837.06
2019-01-19T01:40:02.251Z,101836.67
2019-01-19T01:42:47.228Z,101841.31
2019-01-19T01:45:36.949Z,101841.74
2019-01-19T01:48:12.693Z,101842.25
2019-01-19T01:50:51.735Z,101844.80
2019-01-19T01:53:42.560Z,101843.34
2019-01-19T01:56:12.868Z,101844.25
2019-01-19T01:58:48.599Z,101842.91
2019-01-19T02:01:24.394Z,101841.28
2019-01-19T02:04:15.303Z,101840.98
2019-01-19T02:06:53.931Z,101837.75
2019-01-19T02:09:48.758Z,101843.18
2019-01-19T02:12:39.815Z,101838.70
2019-01-19T02:15:37.251Z,101841.72
2019-01-19T02:18:21.805Z,101841.23
2019-01-19T02:21:11.382Z,101835.94
2019-01-19T02:24:06.156Z,101834.14
2019-01-19T02:26:51.285Z,101833.09
2019-01-19T02:29:25.813Z,101828.61
2019-01-19T02:32:10.481Z,101833.52
2019-01-19T02:34:56.130Z,101829.47
2019-01-19T02:37:29.299Z,101824.98
2019-01-19T02:40:14.294Z,101831.14
2019-01-19T02:42:50.407Z,101828.94
2019-01-19T02:45:35.207Z,101831.53
2019-01-19T02:48:28.219Z,101825.25
2019-01-19T02:51:03.971Z,101830.00
2019-01-19T02:53:51.787Z,101836.34
2019-01-19T02:56:33.971Z,101836.83
2019-01-19T02:59:07.172Z,101835.05
2019-01-19T03:01:55.068Z,101830.52
2019-01-19T03:04:44.229Z,101837.67
2019-01-19T03:07:41.787Z,101834.44
2019-01-19T03:10:33.545Z,101835.77
2019-01-19T03:13:21.132Z,101828.94
2019-01-19T03:16:06.540Z,101829.75
2019-01-19T03:18:39.857Z,101823.22
2019-01-19T03:21:32.655Z,101817.77
2019-01-19T03:24:17.737Z,101819.96
2019-01-19T03:26:53.706Z,101822.69
2019-01-19T03:29:42.282Z,101821.78
2019-01-19T03:32:22.499Z,101819.53
2019-01-19T03:34:55.580Z,101829.13
2019-01-19T03:38:03.013Z,101821.55
2019-01-19T03:40:36.310Z,101824.18
2019-01-19T03:43:37.384Z,101823.36
2019-01-19T03:46:27.038Z,101822.36
2019-01-19T03:49:22.988Z,101823.69
2019-01-19T03:52:08.442Z,101834.81
2019-01-19T03:54:56.733Z,101828.61
2019-01-19T03:57:38.383Z,101829.84
2019-01-19T04:00:20.062Z,101832.14
2019-01-19T04:03:02.742Z,101826.89
2019-01-19T04:05:41.555Z,101827.23
2019-01-19T04:08:30.971Z,101830.90
2019-01-19T04:11:15.696Z,101829.13
2019-01-19T04:13:54.983Z,101825.52
2019-01-19T04:16:57.117Z,101825.09
2019-01-19T04:19:42.121Z,101829.09
2019-01-19T04:22:15.164Z,101829.05
2019-01-19T04:24:48.160Z,101824.18
2019-01-19T04:27:18.219Z,101820.64
2019-01-19T04:29:47.990Z,101830.00
2019-01-19T04:32:17.748Z,101826.36
2019-01-19T04:34:47.477Z,101829.38
2019-01-19T04:37:17.618Z,101829.41
2019-01-19T04:39:47.430Z,101823.74
2019-01-19T04:42:17.480Z,101822.31
2019-01-19T04:44:47.732Z,101825.36
2019-01-19T04:47:17.690Z,101821.55
2019-01-19T04:49:47.750Z,101823.36
2019-01-19T04:52:17.738Z,101823.32
2019-01-19T04:54:48.491Z,101823.84
2019-01-19T04:57:18.381Z,101825.17
2019-01-19T04:59:48.408Z,101822.46
2019-01-19T05:02:18.079Z,101820.27
2019-01-19T05:04:47.904Z,101826.95
2019-01-19T05:07:17.789Z,101814.92
2019-01-19T05:09:47.969Z,101818.92
2019-01-19T05:12:17.861Z,101813.69
2019-01-19T05:14:47.768Z,101816.78
2019-01-19T05:17:17.656Z,101817.73
2019-01-19T05:19:47.522Z,101819.13
2019-01-19T05:22:17.712Z,101816.02
2019-01-19T05:24:47.484Z,101823.64
2019-01-19T05:27:17.254Z,101816.50
2019-01-19T05:29:47.434Z,101816.02
2019-01-19T05:32:17.602Z,101812.11
2019-01-19T05:34:47.616Z,101815.73
2019-01-19T05:37:17.585Z,101819.69
2019-01-19T05:39:47.555Z,101817.49
2019-01-19T05:42:20.902Z,101816.16
2019-01-19T05:44:51.375Z,101819.78
2019-01-19T05:47:21.423Z,101817.11
2019-01-19T05:49:51.987Z,101815.35
2019-01-19T05:52:22.394Z,101813.16
2019-01-19T05:54:52.175Z,101823.41
2019-01-19T05:57:22.033Z,101817.55
2019-01-19T05:59:52.050Z,101816.69
2019-01-19T06:02:23.771Z,101820.27
2019-01-19T06:04:53.670Z,101821.22
2019-01-19T06:07:23.594Z,101822.02
2019-01-19T06:09:55.758Z,101824.27
2019-01-19T06:12:25.763Z,101827.37
2019-01-19T06:14:55.643Z,101826.55
2019-01-19T06:17:25.980Z,101824.31
2019-01-19T06:19:56.425Z,101837.23
2019-01-19T06:22:26.347Z,101833.27
2019-01-19T06:24:56.285Z,101834.22
2019-01-19T06:27:26.256Z,101828.23
2019-01-19T06:29:56.337Z,101835.80
2019-01-19T06:32:26.060Z,101830.17
2019-01-19T06:34:56.139Z,101835.00
2019-01-19T06:37:26.220Z,101833.83
2019-01-19T06:39:56.135Z,101834.30
2019-01-19T06:42:25.918Z,101827.08
2019-01-19T06:44:55.743Z,101827.93
2019-01-19T06:47:26.014Z,101837.33
2019-01-19T06:49:56.476Z,101837.88
2019-01-19T06:52:26.791Z,101838.73
2019-01-19T06:54:56.752Z,101837.45
2019-01-19T06:57:26.984Z,101833.53
2019-01-19T06:59:57.193Z,101836.94
2019-01-19T07:02:27.231Z,101843.13
2019-01-19T07:04:57.223Z,101846.28
2019-01-19T07:07:27.244Z,101839.86
2019-01-19T07:09:57.414Z,101852.95
2019-01-19T07:12:27.344Z,101854.02
2019-01-19T07:14:58.099Z,101854.10
2019-01-19T07:17:31.186Z,101858.54
2019-01-19T07:20:14.407Z,101860.31
2019-01-19T07:22:44.187Z,101859.83
2019-01-19T07:25:14.793Z,101861.05
2019-01-19T07:27:44.579Z,101862.30
2019-01-19T07:30:16.487Z,101870.31
2019-01-19T07:32:47.329Z,101865.91
2019-01-19T07:35:17.848Z,101868.27
2019-01-19T07:37:47.571Z,101864.11
2019-01-19T07:40:18.778Z,101866.73
2019-01-19T07:42:50.375Z,101874.08
2019-01-19T07:45:20.586Z,101875.34
2019-01-19T07:47:50.421Z,101875.38
2019-01-19T07:50:20.452Z,101881.70
2019-01-19T07:52:50.251Z,101881.23
2019-01-19T07:55:20.483Z,101881.23
2019-01-19T07:57:50.382Z,101881.54
2019-01-19T08:00:29.403Z,101887.27
2019-01-19T08:02:59.305Z,101889.12
2019-01-19T08:05:29.414Z,101891.08
2019-01-19T08:07:59.564Z,101895.43
2019-01-19T08:10:29.394Z,101892.06
2019-01-19T08:12:59.450Z,101893.87
2019-01-19T08:15:30.216Z,101896.58
2019-01-19T08:18:01.057Z,101899.16
2019-01-19T08:20:31.293Z,101894.45
2019-01-19T08:23:01.460Z,101890.30
2019-01-19T08:25:31.470Z,101893.00
2019-01-19T08:28:01.450Z,101893.00
2019-01-19T08:30:31.601Z,101899.72
2019-01-19T08:33:01.521Z,101900.50
2019-01-19T08:35:31.366Z,101900.55
2019-01-19T08:38:01.446Z,101900.07
2019-01-19T08:40:33.963Z,101897.36
2019-01-19T08:43:06.295Z,101903.69
2019-01-19T08:45:36.189Z,101904.86
2019-01-19T08:48:06.091Z,101912.91
2019-01-19T08:50:36.174Z,101906.66
2019-01-19T08:53:06.087Z,101905.64
2019-01-19T08:55:36.224Z,101907.48
2019-01-19T08:58:06.135Z,101910.20
2019-01-19T09:00:36.154Z,101910.59
2019-01-19T09:03:06.132Z,101911.84
2019-01-19T09:05:36.116Z,101916.32
2019-01-19T09:08:06.028Z,101914.51
2019-01-19T09:10:35.854Z,101920.12
2019-01-19T09:13:05.850Z,101918.17
2019-01-19T09:15:35.937Z,101917.91
2019-01-19T09:18:05.714Z,101917.10
2019-01-19T09:20:35.509Z,101923.12
2019-01-19T09:23:12.750Z,101918.39
2019-01-19T09:25:42.626Z,101920.77
2019-01-19T09:28:12.987Z,101922.31
2019-01-19T09:30:43.715Z,101919.81
2019-01-19T09:33:13.843Z,101918.66
2019-01-19T09:35:45.779Z,101922.48
2019-01-19T09:38:16.299Z,101928.20
2019-01-19T09:40:46.512Z,101929.50
2019-01-19T09:43:16.323Z,101924.02
2019-01-19T09:45:45.964Z,101928.02
2019-01-19T09:48:15.896Z,101929.30
2019-01-19T09:50:45.782Z,101930.73
2019-01-19T09:53:15.560Z,101934.53
2019-01-19T09:55:45.826Z,101937.47
2019-01-19T09:58:19.929Z,101935.50
2019-01-19T10:00:49.864Z,101932.49
2019-01-19T10:03:19.879Z,101933.14
2019-01-19T10:05:49.968Z,101932.98
2019-01-19T10:08:19.763Z,101933.56
2019-01-19T10:10:49.777Z,101925.17
2019-01-19T10:13:19.868Z,101933.24
2019-01-19T10:15:49.949Z,101928.14
2019-01-19T10:18:21.237Z,101932.06
2019-01-19T10:20:51.729Z,101930.17
2019-01-19T10:23:21.900Z,101928.72
2019-01-19T10:25:51.604Z,101931.28
2019-01-19T10:28:21.709Z,101932.98
2019-01-19T10:30:51.788Z,101934.81
2019-01-19T10:33:21.768Z,101926.53
2019-01-19T10:35:51.345Z,101921.72
2019-01-19T10:38:21.025Z,101929.09
2019-01-19T10:40:50.780Z,101923.59
2019-01-19T10:43:21.284Z,101924.88
2019-01-19T10:45:51.512Z,101919.53
2019-01-19T10:48:21.508Z,101921.64
2019-01-19T10:50:51.387Z,101925.31
2019-01-19T10:53:21.184Z,101924.58
2019-01-19T10:55:50.878Z,101919.03
2019-01-19T10:58:20.663Z,101919.59
2019-01-19T11:00:52.090Z,101918.66
2019-01-19T11:03:21.851Z,101918.01
2019-01-19T11:05:51.945Z,101914.53
2019-01-19T11:08:21.944Z,101914.17
2019-01-19T11:10:51.940Z,101911.42
2019-01-19T11:13:21.785Z,101913.73
2019-01-19T11:15:57.902Z,101912.48
2019-01-19T11:18:27.704Z,101910.05
2019-01-19T11:20:57.864Z,101907.42
2019-01-19T11:23:27.850Z,101903.25
2019-01-19T11:25:57.774Z,101903.58
2019-01-19T11:28:27.980Z,101900.97
2019-01-19T11:30:58.375Z,101896.48
2019-01-19T11:33:28.403Z,101882.39
2019-01-19T11:36:00.152Z,101888.16
2019-01-19T11:38:29.880Z,101884.59
2019-01-19T11:40:59.760Z,101879.35
2019-01-19T11:43:29.771Z,101874.99
2019-01-19T11:46:00.130Z,101878.45
2019-01-19T11:48:29.823Z,101875.84
2019-01-19T11:50:59.615Z,101874.86
2019-01-19T11:53:29.406Z,101875.13
2019-01-19T11:55:59.745Z,101874.84
2019-01-19T11:58:29.561Z,101867.16
2019-01-19T12:00:59.535Z,101864.55
2019-01-19T12:03:31.103Z,101867.45
2019-01-19T12:06:02.693Z,101867.16
2019-01-19T12:08:32.671Z,101865.59
2019-01-19T12:11:02.799Z,101861.72
2019-01-19T12:13:32.657Z,101862.16
2019-01-19T12:16:02.495Z,101865.58
2019-01-19T12:18:32.240Z,101865.34
2019-01-19T12:21:02.603Z,101866.73
2019-01-19T12:23:32.923Z,101862.78
2019-01-19T12:26:02.831Z,101861.03
2019-01-19T12:28:32.791Z,101862.00
2019-01-19T12:31:02.680Z,101865.03
2019-01-19T12:33:34.654Z,101856.30
2019-01-19T12:36:04.339Z,101858.81
2019-01-19T12:38:34.695Z,101859.97
2019-01-19T12:41:04.483Z,101847.28
2019-01-19T12:43:34.415Z,101843.69
2019-01-19T12:46:04.578Z,101848.34
2019-01-19T12:48:34.624Z,101847.12
2019-01-19T12:51:04.332Z,101838.03
2019-01-19T12:53:34.153Z,101830.43
2019-01-19T12:56:03.829Z,101832.38
2019-01-19T12:58:33.902Z,101832.80
2019-01-19T13:01:03.673Z,101835.64
2019-01-19T13:03:35.704Z,101825.98
2019-01-19T13:06:16.109Z,101818.49
2019-01-19T13:08:46.850Z,101824.70
2019-01-19T13:11:35.191Z,101822.33
2019-01-19T13:14:05.283Z,101822.39
2019-01-19T13:16:56.317Z,101818.80
2019-01-19T13:19:35.383Z,101821.34
2019-01-19T13:22:26.342Z,101823.59
2019-01-19T13:25:08.213Z,101818.38
2019-01-19T13:27:44.440Z,101818.23
2019-01-19T13:30:24.988Z,101812.87
2019-01-19T13:33:10.159Z,101813.72
2019-01-19T13:36:01.265Z,101810.34
2019-01-19T13:39:06.789Z,101810.97
2019-01-19T13:42:00.581Z,101801.94
2019-01-19T13:44:45.967Z,101802.34
2019-01-19T13:47:41.145Z,101800.95
2019-01-19T13:50:27.712Z,101798.39
2019-01-19T13:53:27.110Z,101801.02
2019-01-19T13:56:30.651Z,101794.47
2019-01-19T13:59:19.263Z,101788.70
2019-01-19T14:02:19.387Z,101789.16
2019-01-19T14:05:27.018Z,101791.71
2019-01-19T14:08:18.312Z,101790.86
2019-01-19T14:13:46.204Z,101789.53
2019-01-19T14:16:20.779Z,101799.27
2019-01-19T14:19:16.425Z,101795.16
2019-01-19T14:21:53.518Z,101793.38
2019-01-19T14:24:53.757Z,101795.08
2019-01-19T14:27:30.449Z,101795.16
2019-01-19T14:30:13.453Z,101786.50
2019-01-19T14:33:07.370Z,101791.56
2019-01-19T14:36:09.011Z,101784.10
2019-01-19T14:41:56.396Z,101780.77
2019-01-19T14:44:48.547Z,101777.58
2019-01-19T14:47:24.190Z,101782.45
2019-01-19T14:50:06.428Z,101784.10
2019-01-19T14:52:49.113Z,101777.93
2019-01-19T14:55:38.688Z,101773.00
2019-01-19T14:58:24.717Z,101769.52
2019-01-19T15:01:01.421Z,101777.62
2019-01-19T15:03:44.387Z,101779.02
2019-01-19T15:06:22.623Z,101776.05
2019-01-19T15:09:03.993Z,101770.92
2019-01-19T15:11:55.401Z,101772.56
2019-01-19T15:14:32.420Z,101776.89
2019-01-19T15:17:27.489Z,101777.75
2019-01-19T15:20:13.251Z,101766.73
2019-01-19T15:23:04.364Z,101774.94
2019-01-19T15:26:11.377Z,101767.89
2019-01-19T15:28:46.303Z,101772.97
2019-01-19T15:31:20.645Z,101770.56
2019-01-19T15:34:13.560Z,101767.69
2019-01-19T15:37:04.747Z,101764.16
2019-01-19T15:39:48.010Z,101769.27
2019-01-19T15:42:38.390Z,101767.75
2019-01-19T15:45:18.629Z,101771.91
2019-01-19T15:48:27.061Z,101770.75
2019-01-19T15:51:24.637Z,101776.66
2019-01-19T15:54:06.715Z,101775.50
2019-01-19T15:56:46.065Z,101776.02
2019-01-19T15:59:35.962Z,101777.47
2019-01-19T16:02:22.094Z,101778.45
2019-01-19T16:05:31.651Z,101774.95
2019-01-19T16:08:54.628Z,101770.17
2019-01-19T16:11:43.595Z,101774.20
2019-01-19T16:14:42.874Z,101774.32
2019-01-19T16:17:30.781Z,101780.16
2019-01-19T16:20:15.923Z,101772.19
2019-01-19T16:22:54.894Z,101775.37
2019-01-19T16:25:43.021Z,101785.63
2019-01-19T16:28:35.579Z,101776.33
2019-01-19T16:31:14.694Z,101777.27
2019-01-19T16:33:53.454Z,101776.44
2019-01-19T16:36:45.056Z,101778.27
2019-01-19T16:39:25.822Z,101784.52
2019-01-19T16:42:05.811Z,101781.45
2019-01-19T16:44:56.581Z,101782.38
2019-01-19T16:47:51.288Z,101781.95
2019-01-19T16:50:46.724Z,101782.81
2019-01-19T16:53:31.841Z,101780.16
2019-01-19T16:56:05.163Z,101780.59
2019-01-19T16:58:54.865Z,101779.75
2019-01-19T17:01:33.678Z,101777.08
2019-01-19T17:04:13.505Z,101773.15
2019-01-19T17:06:51.878Z,101770.05
2019-01-19T17:09:32.863Z,101778.97
2019-01-19T17:12:14.137Z,101778.13
2019-01-19T17:14:58.996Z,101771.47
2019-01-19T17:18:05.884Z,101771.93
2019-01-19T17:20:54.302Z,101770.20
2019-01-19T17:23:48.673Z,101769.33
2019-01-19T17:26:36.655Z,101764.92
2019-01-19T17:29:28.013Z,101769.37
2019-01-19T17:32:12.856Z,101772.50
2019-01-19T17:34:54.882Z,101767.20
2019-01-19T17:37:30.841Z,101768.09
2019-01-19T17:40:07.839Z,101768.09
2019-01-19T17:42:41.046Z,101769.92
2019-01-19T17:45:30.831Z,101769.48
2019-01-19T17:48:06.286Z,101769.02
2019-01-19T17:50:45.256Z,101770.78
2019-01-19T17:53:24.073Z,101769.89
2019-01-19T17:56:06.086Z,101770.41
2019-01-19T17:58:45.124Z,101778.84
2019-01-19T18:01:29.964Z,101777.10
2019-01-19T18:04:12.662Z,101781.12
2019-01-19T18:06:54.356Z,101782.89
2019-01-19T18:09:27.482Z,101783.34
2019-01-19T18:12:00.438Z,101778.51
2019-01-19T18:14:42.412Z,101781.12
2019-01-19T18:17:30.870Z,101775.31
2019-01-19T18:20:36.151Z,101780.64
2019-01-19T18:23:24.510Z,101781.61
2019-01-19T18:26:15.639Z,101778.05
2019-01-19T18:28:58.566Z,101780.75
2019-01-19T18:31:34.416Z,101777.23
2019-01-19T18:34:19.163Z,101773.70
2019-01-19T18:36:57.844Z,101774.18
2019-01-19T18:39:36.838Z,101779.50
2019-01-19T18:42:13.052Z,101775.53
2019-01-19T18:45:07.251Z,101770.21
2019-01-19T18:47:49.567Z,101773.75
2019-01-19T18:50:32.358Z,101773.30
2019-01-19T18:53:18.262Z,101778.66
2019-01-19T18:55:53.947Z,101784.03
2019-01-19T18:58:32.663Z,101783.17
2019-01-19T19:01:08.396Z,101785.35
2019-01-19T19:03:59.935Z,101785.39
2019-01-19T19:07:01.562Z,101786.24
2019-01-19T19:09:37.154Z,101778.73
2019-01-19T19:12:16.025Z,101777.89
2019-01-19T19:15:19.873Z,101778.34
2019-01-19T19:18:07.727Z,101774.77
2019-01-19T19:20:43.464Z,101774.77
2019-01-19T19:23:22.424Z,101781.42
2019-01-19T19:26:19.788Z,101779.23
2019-01-19T19:28:59.020Z,101779.23
2019-01-19T19:31:35.810Z,101779.25
2019-01-19T19:34:11.708Z,101777.04
2019-01-19T19:36:59.965Z,101767.72
2019-01-19T19:39:35.670Z,101765.52
2019-01-19T19:42:35.320Z,101768.17
2019-01-19T19:45:08.350Z,101773.50
2019-01-19T19:47:43.974Z,101769.52
2019-01-19T19:50:23.090Z,101774.83
2019-01-19T19:52:54.578Z,101770.86
2019-01-19T19:55:23.595Z,101777.50
2019-01-19T19:57:53.475Z,101774.81
2019-01-19T20:00:23.161Z,101770.39
2019-01-19T20:02:52.997Z,101770.84
2019-01-19T20:05:22.651Z,101769.92
2019-01-19T20:07:52.312Z,101773.47
2019-01-19T20:10:22.560Z,101768.55
2019-01-19T20:12:52.643Z,101769.42
2019-01-19T20:15:22.721Z,101768.12
2019-01-19T20:17:52.993Z,101771.22
2019-01-19T20:20:22.844Z,101767.22
2019-01-19T20:22:53.767Z,101769.02
2019-01-19T20:25:24.006Z,101767.27
2019-01-19T20:27:53.895Z,101764.64
2019-01-19T20:30:23.820Z,101770.45
2019-01-19T20:32:53.780Z,101771.38
2019-01-19T20:35:25.483Z,101769.64
2019-01-19T20:37:55.342Z,101767.44
2019-01-19T20:40:26.522Z,101768.36
2019-01-19T20:42:56.616Z,101770.58
2019-01-19T20:45:27.659Z,101770.13
2019-01-19T20:47:58.079Z,101770.58
2019-01-19T20:50:28.089Z,101774.14
2019-01-19T20:52:58.156Z,101771.92
2019-01-19T20:55:28.811Z,101774.16
2019-01-19T20:57:58.805Z,101777.24
2019-01-19T21:00:30.717Z,101781.67
2019-01-19T21:03:00.316Z,101779.45
2019-01-19T21:05:30.535Z,101775.46
2019-01-19T21:08:00.281Z,101774.59
2019-01-19T21:10:31.975Z,101787.85
2019-01-19T21:13:02.518Z,101784.31
2019-01-19T21:15:32.455Z,101783.91
2019-01-19T21:18:02.385Z,101782.15
2019-01-19T21:20:32.416Z,101787.92
2019-01-19T21:23:02.112Z,101787.91
2019-01-19T21:25:31.861Z,101783.93
2019-01-19T21:28:01.842Z,101778.64
2019-01-19T21:30:31.512Z,101774.20
2019-01-19T21:33:02.143Z,101775.98
2019-01-19T21:35:32.137Z,101776.00
2019-01-19T21:38:02.839Z,101776.45
2019-01-19T21:40:38.906Z,101781.31
2019-01-19T21:43:05.976Z,101777.31
2019-01-19T21:45:36.141Z,101780.88
2019-01-19T21:48:05.875Z,101783.53
2019-01-19T21:50:36.448Z,101779.98
2019-01-19T21:53:06.481Z,101772.92
2019-01-19T21:55:36.229Z,101776.45
2019-01-19T21:58:06.292Z,101775.57
2019-01-19T22:00:36.367Z,101763.20
2019-01-19T22:03:06.828Z,101768.50
2019-01-19T22:05:37.034Z,101772.92
2019-01-19T22:08:07.001Z,101775.59
2019-01-19T22:10:36.962Z,101769.84
2019-01-19T22:13:06.915Z,101774.70
2019-01-19T22:15:37.617Z,101778.22
2019-01-19T22:18:07.378Z,101781.34
2019-01-19T22:20:38.042Z,101777.34
2019-01-19T22:23:08.239Z,101785.75
2019-01-19T22:25:38.793Z,101776.91
2019-01-19T22:28:08.598Z,101778.25
2019-01-19T22:30:38.994Z,101776.92
2019-01-19T22:33:09.855Z,101769.41
2019-01-19T22:35:39.846Z,101771.60
2019-01-19T22:38:10.304Z,101776.03
2019-01-19T22:40:40.060Z,101772.49
2019-01-19T22:43:11.043Z,101774.69
2019-01-19T22:45:40.830Z,101772.48
2019-01-19T22:48:10.780Z,101781.77
2019-01-19T22:50:40.585Z,101784.00
2019-01-19T22:53:12.884Z,101781.78
2019-01-19T22:55:42.727Z,101787.09
2019-01-19T22:58:12.672Z,101786.19
2019-01-19T23:00:51.437Z,101783.11
2019-01-19T23:03:21.885Z,101778.23
2019-01-19T23:05:52.439Z,101781.77
2019-01-19T23:08:22.448Z,101782.66
2019-01-19T23:10:52.346Z,101783.55
2019-01-19T23:13:22.885Z,101784.00
2019-01-19T23:15:52.585Z,101778.67
2019-01-19T23:18:23.297Z,101780.88
2019-01-19T23:20:53.379Z,101781.78
2019-01-19T23:23:23.372Z,101773.80
2019-01-19T23:25:53.072Z,101771.58
2019-01-19T23:28:22.684Z,101778.19
2019-01-19T23:30:52.323Z,101777.33
2019-01-19T23:33:22.176Z,101778.67
2019-01-19T23:35:52.044Z,101777.34
2019-01-19T23:38:21.683Z,101776.01
2019-01-19T23:40:51.630Z,101774.68
2019-01-19T23:43:21.259Z,101776.89
2019-01-19T23:45:51.119Z,101774.70
2019-01-19T23:48:20.773Z,101783.98
2019-01-19T23:50:50.504Z,101787.08
2019-01-19T23:53:20.288Z,101784.41
2019-01-19T23:55:49.978Z,101780.02
2019-01-19T23:58:21.791Z,101778.66
